^^
Your Local Weather - Clay, NY Station Historical Data
Daily Summary for March 1, 2018 Units:  Metric    English   Both
« Previous Day
Next Day »
Daily Weekly Monthly Yearly Custom
  High: Low: Average:
Temperature: 8.9 °C 0.8 °C 2.9 °C
Dew Point: 5.3 °C -1.1 °C 0.2 °C
Humidity: 88% 75% 82%
Wind Speed: 11.3km/h 0km/h 2.1km/h
Wind Gust: 22.5km/h - -
Wind- - SSW
Pressure: 1013.4 hPa 1002.3 hPa -
Precipitation: 2.54 mm    
Historical Graphs
 
 
Tabular Data for March 1, 2018
Time Temperature Dew Point Pressure Wind Wind Speed Wind Gust Humidity Rainfall Rate (Hourly) solar
00:00 8.9 °C 5.3 °C 1009.4 hPa WNW 4.8 km/h 4.8 km/h 78% 0 mm 0 W/m2
00:06 8.7 °C 5.1 °C 1009.4 hPa NW 3.2 km/h 6.4 km/h 78% 0 mm 0 W/m2
00:12 8.6 °C 4.9 °C 1009.4 hPa NW 4.8 km/h 6.4 km/h 78% 0 mm 0 W/m2
00:18 8.3 °C 4.7 °C 1009.4 hPa NW 3.2 km/h 8 km/h 78% 0 mm 0 W/m2
00:24 8.2 °C 4.7 °C 1009.4 hPa NW 1.6 km/h 3.2 km/h 79% 0 mm 0 W/m2
00:30 8.1 °C 4.6 °C 1009.4 hPa NW 1.6 km/h 6.4 km/h 79% 0 mm 0 W/m2
00:36 7.9 °C 4.5 °C 1009.4 hPa NW 1.6 km/h 6.4 km/h 79% 0 mm 0 W/m2
00:42 7.8 °C 4.4 °C 1009.4 hPa NW 1.6 km/h 4.8 km/h 79% 0 mm 0 W/m2
00:48 7.6 °C 4.2 °C 1009.7 hPa NW 3.2 km/h 4.8 km/h 79% 0 mm 0 W/m2
00:54 7.4 °C 3.7 °C 1009.7 hPa WNW 4.8 km/h 6.4 km/h 77% 0 mm 0 W/m2
01:00 7.3 °C 3.6 °C 1009.7 hPa WNW 4.8 km/h 6.4 km/h 77% 0 mm 0 W/m2
01:06 7.2 °C 3.2 °C 1009.7 hPa WNW 4.8 km/h 8 km/h 76% 0 mm 0 W/m2
01:12 6.9 °C 3 °C 1010 hPa WNW 4.8 km/h 4.8 km/h 76% 0 mm 0 W/m2
01:18 6.6 °C 2.6 °C 1010 hPa WNW 3.2 km/h 4.8 km/h 76% 0 mm 0 W/m2
01:24 6.3 °C 2.3 °C 1010.4 hPa WNW 4.8 km/h 6.4 km/h 76% 0 mm 0 W/m2
01:30 6.1 °C 2.2 °C 1010.4 hPa WNW 4.8 km/h 4.8 km/h 76% 0 mm 0 W/m2
01:36 5.8 °C 1.9 °C 1010.4 hPa WNW 3.2 km/h 4.8 km/h 76% 0 mm 0 W/m2
01:42 5.6 °C 1.8 °C 1010 hPa WNW 3.2 km/h 4.8 km/h 77% 0 mm 0 W/m2
01:48 5.3 °C 1.8 °C 1010 hPa WNW 4.8 km/h 6.4 km/h 78% 0 mm 0 W/m2
01:54 5.1 °C 1.6 °C 1010.4 hPa WNW 3.2 km/h 4.8 km/h 78% 0 mm 0 W/m2
02:00 4.9 °C 1.6 °C 1010.4 hPa WNW 3.2 km/h 3.2 km/h 79% 0 mm 0 W/m2
02:06 4.7 °C 1.3 °C 1010.4 hPa WNW 3.2 km/h 3.2 km/h 79% 0 mm 0 W/m2
02:12 4.4 °C 1.3 °C 1010.4 hPa WNW 3.2 km/h 4.8 km/h 80% 0 mm 0 W/m2
02:18 4.2 °C 1.2 °C 1010.4 hPa WNW 3.2 km/h 4.8 km/h 81% 0 mm 0 W/m2
02:24 4.1 °C 1.3 °C 1010.4 hPa WNW 1.6 km/h 4.8 km/h 82% 0 mm 0 W/m2
02:30 3.9 °C 1.1 °C 1010.4 hPa WNW 1.6 km/h 1.6 km/h 82% 0 mm 0 W/m2
02:36 3.8 °C 1.2 °C 1010.4 hPa WNW 3.2 km/h 6.4 km/h 83% 0 mm 0 W/m2
02:42 3.6 °C 1 °C 1010.4 hPa WNW 1.6 km/h 1.6 km/h 83% 0 mm 0 W/m2
02:48 3.4 °C 1 °C 1010.4 hPa WNW 1.6 km/h 4.8 km/h 84% 0 mm 0 W/m2
02:54 3.2 °C 0.8 °C 1010.4 hPa WNW 1.6 km/h 1.6 km/h 84% 0 mm 0 W/m2
03:00 3.1 °C 0.8 °C 1010.4 hPa Calm   4.8 km/h 85% 0 mm 0 W/m2
03:06 3.1 °C 0.9 °C 1010.4 hPa NNW 3.2 km/h 6.4 km/h 86% 0 mm 0 W/m2
03:12 3.1 °C 1.1 °C 1010.4 hPa North 4.8 km/h 4.8 km/h 87% 0 mm 0 W/m2
03:18 3.1 °C 1.1 °C 1010.7 hPa North 3.2 km/h 4.8 km/h 87% 0 mm 0 W/m2
03:24 3.1 °C 1.1 °C 1010.7 hPa NW 1.6 km/h 3.2 km/h 87% 0 mm 0 W/m2
03:30 3 °C 1.2 °C 1010.7 hPa NW 1.6 km/h 1.6 km/h 88% 0 mm 0 W/m2
03:36 2.9 °C 1.2 °C 1010.7 hPa NW 1.6 km/h 4.8 km/h 88% 0 mm 0 W/m2
03:42 2.7 °C 0.9 °C 1010.7 hPa NW 3.2 km/h 4.8 km/h 88% 0 mm 0 W/m2
03:48 2.4 °C 0.5 °C 1010.7 hPa NNW 3.2 km/h 4.8 km/h 87% 0 mm 0 W/m2
03:54 2.2 °C 0.3 °C 1010.7 hPa NNW 3.2 km/h 3.2 km/h 87% 0 mm 0 W/m2
04:10 1.9 °C -0.1 °C 1011.1 hPa WNW 1.6 km/h 9.7 km/h 87% 0 mm 0 W/m2
04:16 1.8 °C -0.3 °C 1011.1 hPa NW 3.2 km/h 9.7 km/h 86% 0 mm 0 W/m2
04:22 1.7 °C -0.4 °C 1011.1 hPa NNW 3.2 km/h 3.2 km/h 86% 0 mm 0 W/m2
04:28 1.6 °C -0.6 °C 1011.1 hPa NNW 1.6 km/h 3.2 km/h 86% 0 mm 0 W/m2
04:34 1.5 °C -0.6 °C 1011.1 hPa NNW 1.6 km/h 3.2 km/h 86% 0 mm 0 W/m2
04:40 1.4 °C -0.7 °C 1011.1 hPa NNW 1.6 km/h 1.6 km/h 86% 0 mm 0 W/m2
04:46 1.3 °C -0.8 °C 1011.4 hPa NNW 1.6 km/h 3.2 km/h 86% 0 mm 0 W/m2
04:52 1.2 °C -0.9 °C 1011.1 hPa NNW 1.6 km/h 1.6 km/h 86% 0 mm 0 W/m2
05:00 1.1 °C -0.9 °C 1011.4 hPa NNW 3.2 km/h 3.2 km/h 87% 0 mm 0 W/m2
05:06 1 °C -0.9 °C 1011.4 hPa NNW 1.6 km/h 3.2 km/h 87% 0 mm 0 W/m2
05:12 0.9 °C -1 °C 1011.7 hPa NNW 1.6 km/h 3.2 km/h 87% 0 mm 0 W/m2
05:14 0.9 °C -1.1 °C 1011.7 hPa NNW 1.6 km/h 4.8 km/h 87% 0 mm 0 W/m2
05:20 0.9 °C -1.1 °C 1012.1 hPa NNW 3.2 km/h 3.2 km/h 87% 0 mm 0 W/m2
05:26 0.9 °C -1.1 °C 1012.4 hPa NNW 1.6 km/h 6.4 km/h 87% 0 mm 0 W/m2
05:32 0.9 °C -1.1 °C 1012.1 hPa NNW 1.6 km/h 1.6 km/h 87% 0 mm 0 W/m2
05:38 0.9 °C -1 °C 1012.4 hPa NNW 3.2 km/h 6.4 km/h 87% 0 mm 0 W/m2
05:44 0.9 °C -1 °C 1012.8 hPa NNW 3.2 km/h 4.8 km/h 87% 0 mm 0 W/m2
05:50 0.9 °C -1 °C 1012.8 hPa NNW 3.2 km/h 3.2 km/h 87% 0 mm 0 W/m2
05:56 0.9 °C -0.8 °C 1013.1 hPa NNW 3.2 km/h 4.8 km/h 88% 0 mm 0 W/m2
06:02 1 °C -0.9 °C 1013.1 hPa NNW 3.2 km/h 4.8 km/h 87% 0 mm 0 W/m2
06:08 1 °C -0.8 °C 1013.1 hPa NNW 1.6 km/h 4.8 km/h 88% 0 mm 0 W/m2
06:14 1 °C -0.8 °C 1012.8 hPa NNW 1.6 km/h 4.8 km/h 88% 0 mm 0 W/m2
06:20 1 °C -0.8 °C 1012.4 hPa NNW 3.2 km/h 3.2 km/h 88% 0 mm 0 W/m2
06:26 0.9 °C -0.9 °C 1012.1 hPa NNW 4.8 km/h 4.8 km/h 88% 0 mm 0 W/m2
06:32 0.9 °C -1.1 °C 1012.1 hPa NW 4.8 km/h 4.8 km/h 87% 0 mm 0 W/m2
06:38 0.8 °C -0.9 °C 1012.4 hPa NW 3.2 km/h 9.7 km/h 88% 0 mm 0 W/m2
06:44 0.8 °C -0.9 °C 1012.4 hPa NW 3.2 km/h 3.2 km/h 88% 0 mm 0 W/m2
06:50 0.8 °C -0.9 °C 1013.1 hPa NW 3.2 km/h 3.2 km/h 88% 0 mm 0 W/m2
06:56 0.9 °C -0.9 °C 1013.1 hPa NW 1.6 km/h 3.2 km/h 88% 0 mm 5 W/m2
07:02 0.9 °C -0.8 °C 1013.1 hPa Calm     88% 0 mm 9 W/m2
07:08 0.9 °C -0.8 °C 1013.1 hPa Calm     88% 0 mm 12 W/m2
07:14 0.9 °C -0.8 °C 1013.1 hPa WNW 1.6 km/h 3.2 km/h 88% 0 mm 18 W/m2
07:22 1.1 °C -0.7 °C 1013.1 hPa Calm   1.6 km/h 88% 0 mm 21 W/m2
07:28 1.1 °C -0.7 °C 1013.1 hPa WNW 1.6 km/h 4.8 km/h 88% 0 mm 21 W/m2
07:34 1 °C -0.8 °C 1013.1 hPa WNW 3.2 km/h 4.8 km/h 88% 0 mm 21 W/m2
07:40 0.9 °C -0.8 °C 1013.1 hPa WNW 3.2 km/h 3.2 km/h 88% 0 mm 28 W/m2
07:46 1 °C -0.8 °C 1012.8 hPa WNW 3.2 km/h 3.2 km/h 88% 0 mm 32 W/m2
07:52 0.9 °C -0.8 °C 1012.8 hPa WNW 1.6 km/h 1.6 km/h 88% 0 mm 32 W/m2
07:58 1 °C -0.8 °C 1012.8 hPa Calm   1.6 km/h 88% 0 mm 26 W/m2
08:06 1.1 °C -0.7 °C 1012.8 hPa Calm     88% 0 mm 46 W/m2
08:12 1.1 °C -0.7 °C 1013.1 hPa WNW 1.6 km/h 3.2 km/h 88% 0 mm 44 W/m2
08:18 1.1 °C -0.9 °C 1013.1 hPa WNW 1.6 km/h 3.2 km/h 87% 0 mm 42 W/m2
08:24 1.1 °C -0.9 °C 1013.1 hPa WNW 1.6 km/h 4.8 km/h 87% 0 mm 46 W/m2
08:30 1.1 °C -0.9 °C 1013.1 hPa WNW 1.6 km/h 3.2 km/h 87% 0 mm 63 W/m2
08:38 1.1 °C -0.8 °C 1013.1 hPa WNW 3.2 km/h 4.8 km/h 87% 0 mm 63 W/m2
08:44 1.1 °C -0.8 °C 1013.1 hPa WNW 3.2 km/h 6.4 km/h 87% 0 mm 74 W/m2
08:50 1.1 °C -0.8 °C 1013.1 hPa WNW 1.6 km/h 1.6 km/h 87% 0 mm 70 W/m2
08:56 1.2 °C -0.8 °C 1013.1 hPa WNW 1.6 km/h 3.2 km/h 87% 0 mm 81 W/m2
09:02 1.2 °C -0.7 °C 1013.1 hPa WNW 1.6 km/h 1.6 km/h 87% 0 mm 69 W/m2
09:08 1.3 °C -0.6 °C 1013.1 hPa Calm   4.8 km/h 87% 0 mm 63 W/m2
09:14 1.3 °C -0.7 °C 1012.8 hPa WNW 1.6 km/h 6.4 km/h 87% 0 mm 51 W/m2
09:20 1.3 °C -0.7 °C 1012.8 hPa WNW 1.6 km/h 1.6 km/h 87% 0 mm 53 W/m2
09:26 1.3 °C -0.6 °C 1012.4 hPa Calm   1.6 km/h 87% 0 mm 49 W/m2
09:32 1.3 °C -0.6 °C 1012.8 hPa Calm   3.2 km/h 87% 0 mm 56 W/m2
09:38 1.4 °C -0.6 °C 1013.1 hPa WNW 1.6 km/h 3.2 km/h 87% 0 mm 53 W/m2
09:44 1.4 °C -0.5 °C 1013.1 hPa Calm   3.2 km/h 87% 0 mm 46 W/m2
09:50 1.4 °C -0.5 °C 1012.8 hPa WNW 1.6 km/h 1.6 km/h 87% 0 mm 53 W/m2
09:56 1.4 °C -0.7 °C 1013.1 hPa WNW 1.6 km/h 1.6 km/h 86% 0 mm 54 W/m2
10:02 1.4 °C -0.7 °C 1013.4 hPa Calm     86% 0 mm 58 W/m2
10:08 1.4 °C -0.7 °C 1013.4 hPa WNW 1.6 km/h 4.8 km/h 86% 0 mm 72 W/m2
10:14 1.4 °C -0.7 °C 1013.4 hPa WNW 3.2 km/h 3.2 km/h 86% 0 mm 72 W/m2
10:20 1.4 °C -0.7 °C 1013.4 hPa WNW 1.6 km/h 3.2 km/h 86% 0 mm 69 W/m2
10:26 1.6 °C -0.6 °C 1013.4 hPa WNW 1.6 km/h 4.8 km/h 86% 0 mm 135 W/m2
10:32 1.7 °C -0.4 °C 1013.1 hPa WNW 1.6 km/h 3.2 km/h 86% 0 mm 197 W/m2
10:38 1.8 °C -0.3 °C 1013.1 hPa WNW 1.6 km/h 3.2 km/h 86% 0 mm 153 W/m2
10:44 1.9 °C -0.2 °C 1013.1 hPa WNW 1.6 km/h 3.2 km/h 86% 0 mm 132 W/m2
10:50 1.9 °C -0.4 °C 1013.1 hPa Calm     85% 0 mm 123 W/m2
10:56 2 °C -0.3 °C 1013.1 hPa Calm     85% 0 mm 111 W/m2
11:02 2.1 °C -0.2 °C 1013.1 hPa WNW 1.6 km/h 3.2 km/h 85% 0 mm 125 W/m2
11:08 2.1 °C -0.2 °C 1013.1 hPa WNW 3.2 km/h 3.2 km/h 85% 0 mm 109 W/m2
11:14 2.2 °C -0.1 °C 1013.1 hPa WNW 1.6 km/h 3.2 km/h 85% 0 mm 93 W/m2
11:20 2.2 °C -0.1 °C 1013.1 hPa Calm     85% 0 mm 62 W/m2
11:26 2.2 °C -0.1 °C 1013.1 hPa Calm     85% 0 mm 51 W/m2
11:32 2.2 °C -0.3 °C 1013.1 hPa Calm     84% 0 mm 77 W/m2
11:38 2.2 °C -0.2 °C 1013.1 hPa Calm     84% 0 mm 74 W/m2
11:44 2.3 °C -0.1 °C 1012.4 hPa Calm   1.6 km/h 84% 0 mm 86 W/m2
11:50 2.3 °C -0.2 °C 1012.4 hPa Calm     84% 0 mm 97 W/m2
11:56 2.3 °C -0.1 °C 1012.4 hPa WNW 1.6 km/h 1.6 km/h 84% 0 mm 102 W/m2
12:02 2.4 °C -0.1 °C 1012.4 hPa Calm   3.2 km/h 84% 0 mm 102 W/m2
12:08 2.4 °C 0 °C 1012.4 hPa Calm   3.2 km/h 84% 0 mm 100 W/m2
12:14 2.5 °C 0.1 °C 1012.4 hPa NE 1.6 km/h 4.8 km/h 84% 0 mm 113 W/m2
12:20 2.6 °C 0.2 °C 1012.1 hPa NE 3.2 km/h 3.2 km/h 84% 0 mm 132 W/m2
12:26 2.7 °C 0.2 °C 1012.1 hPa NE 3.2 km/h 4.8 km/h 84% 0 mm 162 W/m2
12:32 2.9 °C 0.4 °C 1012.1 hPa ENE 3.2 km/h 4.8 km/h 84% 0 mm 151 W/m2
12:38 2.9 °C 0.3 °C 1012.1 hPa ENE 3.2 km/h 4.8 km/h 83% 0 mm 113 W/m2
12:44 2.9 °C 0.3 °C 1012.1 hPa ENE 3.2 km/h 3.2 km/h 83% 0 mm 100 W/m2
12:50 2.9 °C 0.3 °C 1012.1 hPa NE 3.2 km/h 3.2 km/h 83% 0 mm 105 W/m2
12:56 2.9 °C 0.3 °C 1012.1 hPa NE 3.2 km/h 12.9 km/h 83% 0 mm 98 W/m2
13:02 2.9 °C 0.3 °C 1012.1 hPa ENE 3.2 km/h 4.8 km/h 83% 0 mm 123 W/m2
13:08 2.9 °C 0.3 °C 1012.1 hPa NE 3.2 km/h 4.8 km/h 83% 0 mm 127 W/m2
13:14 2.9 °C 0.3 °C 1012.1 hPa ESE 3.2 km/h 4.8 km/h 83% 0 mm 105 W/m2
13:20 2.9 °C 0.3 °C 1011.7 hPa ESE 3.2 km/h 3.2 km/h 83% 0 mm 186 W/m2
13:26 3.1 °C 0.4 °C 1011.7 hPa SE 3.2 km/h 6.4 km/h 83% 0 mm 272 W/m2
13:32 3.2 °C 0.6 °C 1011.4 hPa SE 3.2 km/h 4.8 km/h 83% 0 mm 260 W/m2
13:38 3.3 °C 0.6 °C 1011.1 hPa SE 3.2 km/h 9.7 km/h 82% 0 mm 274 W/m2
13:44 3.4 °C 0.7 °C 1011.1 hPa SE 3.2 km/h 6.4 km/h 82% 0 mm 279 W/m2
13:50 3.7 °C 0.9 °C 1010.7 hPa NNE 3.2 km/h 3.2 km/h 82% 0 mm 274 W/m2
13:56 3.8 °C 0.7 °C 1010.4 hPa NE 1.6 km/h 3.2 km/h 80% 0 mm 278 W/m2
14:02 3.8 °C 0.7 °C 1010.4 hPa East 3.2 km/h 3.2 km/h 80% 0 mm 301 W/m2
14:08 3.7 °C 0.4 °C 1010.4 hPa ENE 3.2 km/h 4.8 km/h 79% 0 mm 225 W/m2
14:14 3.8 °C 0.4 °C 1010.4 hPa NNE 3.2 km/h 8 km/h 79% 0 mm 209 W/m2
14:20 3.9 °C 0.6 °C 1010 hPa SE 4.8 km/h 4.8 km/h 79% 0 mm 207 W/m2
14:26 3.9 °C 0.4 °C 1010 hPa ENE 3.2 km/h 4.8 km/h 78% 0 mm 192 W/m2
14:32 3.9 °C 0.4 °C 1010 hPa SSE 3.2 km/h 3.2 km/h 78% 0 mm 174 W/m2
14:38 3.9 °C 0.4 °C 1010 hPa South 4.8 km/h 6.4 km/h 78% 0 mm 174 W/m2
14:44 3.9 °C 0.2 °C 1010 hPa ESE 4.8 km/h 4.8 km/h 77% 0 mm 207 W/m2
14:50 3.9 °C 0.3 °C 1009.7 hPa SE 3.2 km/h 3.2 km/h 77% 0 mm 172 W/m2
14:56 4 °C 0.3 °C 1009.4 hPa SE 1.6 km/h 3.2 km/h 77% 0 mm 148 W/m2
15:02 4 °C 0.2 °C 1009.4 hPa Calm     76% 0 mm 128 W/m2
15:08 4 °C 0.2 °C 1009 hPa Calm   4.8 km/h 76% 0 mm 118 W/m2
15:14 4.1 °C 0.2 °C 1009 hPa ESE 1.6 km/h 3.2 km/h 76% 0 mm 116 W/m2
15:20 4 °C 0.2 °C 1009 hPa ESE 1.6 km/h 3.2 km/h 76% 0 mm 100 W/m2
15:26 4.1 °C 0.2 °C 1008.7 hPa ESE 1.6 km/h 4.8 km/h 76% 0 mm 83 W/m2
15:32 4 °C 0.2 °C 1008.7 hPa ESE 1.6 km/h 1.6 km/h 76% 0 mm 70 W/m2
15:38 4.1 °C 0.2 °C 1008.4 hPa Calm   3.2 km/h 76% 0 mm 72 W/m2
15:44 4.1 °C 0.3 °C 1008.4 hPa ESE 1.6 km/h 1.6 km/h 76% 0 mm 63 W/m2
15:50 4.1 °C 0.3 °C 1008.4 hPa Calm   1.6 km/h 76% 0 mm 56 W/m2
15:56 4 °C 0.2 °C 1008.4 hPa ESE 1.6 km/h 3.2 km/h 76% 0 mm 54 W/m2
16:02 3.9 °C 0.1 °C 1008.4 hPa ESE 3.2 km/h 3.2 km/h 76% 0 mm 51 W/m2
16:08 3.9 °C 0.3 °C 1008 hPa SE 1.6 km/h 4.8 km/h 77% 0 mm 51 W/m2
16:14 3.8 °C 0 °C 1008 hPa SE 3.2 km/h 4.8 km/h 76% 0 mm 47 W/m2
16:20 3.8 °C 0.2 °C 1008 hPa SE 3.2 km/h 3.2 km/h 77% 0 mm 42 W/m2
16:26 3.8 °C 0.2 °C 1007.7 hPa SE 1.6 km/h 3.2 km/h 77% 0 mm 37 W/m2
16:32 3.8 °C 0.1 °C 1007.7 hPa SE 1.6 km/h 3.2 km/h 77% 0 mm 33 W/m2
16:38 3.8 °C 0.1 °C 1007.3 hPa Calm   3.2 km/h 77% 0 mm 30 W/m2
16:44 3.8 °C 0.2 °C 1007.3 hPa Calm     77% 0 mm 26 W/m2
16:50 3.8 °C 0.1 °C 1007.3 hPa Calm     77% 0 mm 23 W/m2
16:56 3.8 °C 0.1 °C 1007.3 hPa Calm     77% 0 mm 21 W/m2
17:02 3.8 °C 0.1 °C 1007.3 hPa Calm     77% 0 mm 18 W/m2
17:08 3.8 °C 0.1 °C 1007.3 hPa Calm     77% 0 mm 16 W/m2
17:14 3.7 °C 0.1 °C 1007.3 hPa Calm     77% 0 mm 12 W/m2
17:20 3.7 °C 0.1 °C 1007 hPa Calm     77% 0 mm 11 W/m2
17:26 3.7 °C 0 °C 1007 hPa Calm     77% 0 mm 9 W/m2
17:32 3.7 °C 0 °C 1007 hPa Calm     77% 0 mm 7 W/m2
17:38 3.7 °C 0.2 °C 1007 hPa Calm     78% 0 mm 5 W/m2
17:44 3.6 °C 0.1 °C 1007 hPa Calm     78% 0 mm 0 W/m2
17:50 3.6 °C 0.1 °C 1007 hPa Calm     78% 0 mm 0 W/m2
17:54 3.5 °C 0 °C 1007 hPa Calm     78% 0 mm 0 W/m2
18:00 3.4 °C -0.1 °C 1007 hPa Calm     78% 0 mm 0 W/m2
18:06 3.4 °C 0.2 °C 1007 hPa Calm     79% 0 mm 0 W/m2
18:12 3.3 °C 0.1 °C 1007 hPa Calm     79% 0 mm 0 W/m2
18:18 3.3 °C 0.2 °C 1007 hPa Calm     80% 0 mm 0 W/m2
18:24 3.2 °C 0.1 °C 1007 hPa Calm   3.2 km/h 80% 0 mm 0 W/m2
18:30 3.2 °C 0.1 °C 1007 hPa NE 1.6 km/h 3.2 km/h 80% 0 mm 0 W/m2
18:36 3.1 °C 0 °C 1007 hPa NE 1.6 km/h 3.2 km/h 80% 0 mm 0 W/m2
18:42 3 °C -0.1 °C 1006.7 hPa NE 1.6 km/h 1.6 km/h 80% 0 mm 0 W/m2
18:48 2.9 °C -0.2 °C 1006.3 hPa NE 1.6 km/h 1.6 km/h 80% 0 mm 0 W/m2
18:54 2.8 °C -0.3 °C 1006.3 hPa NE 1.6 km/h 1.6 km/h 80% 0 mm 0 W/m2
19:00 2.7 °C -0.4 °C 1006.3 hPa Calm     80% 0 mm 0 W/m2
19:06 2.7 °C -0.4 °C 1006 hPa Calm   1.6 km/h 80% 0 mm 0 W/m2
19:12 2.7 °C -0.4 °C 1006 hPa NE 1.6 km/h 3.2 km/h 80% 0 mm 0 W/m2
19:18 2.7 °C -0.3 °C 1006 hPa NE 1.6 km/h 3.2 km/h 81% 0 mm 0 W/m2
19:24 2.7 °C -0.3 °C 1005.6 hPa Calm   1.6 km/h 81% 0 mm 0 W/m2
19:30 2.6 °C -0.3 °C 1005.6 hPa Calm     81% 0 mm 0 W/m2
19:36 2.6 °C -0.3 °C 1005.3 hPa Calm     81% 0 mm 0 W/m2
19:42 2.6 °C -0.3 °C 1005.3 hPa Calm     81% 0 mm 0 W/m2
19:48 2.6 °C -0.3 °C 1005.3 hPa Calm     81% 0 mm 0 W/m2
19:54 2.6 °C -0.3 °C 1005.3 hPa Calm     81% 0 mm 0 W/m2
20:00 2.6 °C -0.3 °C 1005 hPa Calm     81% 0 mm 0 W/m2
20:06 2.6 °C -0.3 °C 1005 hPa Calm     81% 0 mm 0 W/m2
20:12 2.6 °C -0.3 °C 1004.6 hPa Calm   1.6 km/h 81% 0 mm 0 W/m2
20:18 2.6 °C -0.3 °C 1004.6 hPa NE 1.6 km/h 1.6 km/h 81% 0 mm 0 W/m2
20:24 2.6 °C -0.3 °C 1004.6 hPa Calm     81% 0 mm 0 W/m2
20:30 2.7 °C -0.3 °C 1004.3 hPa Calm     81% 0 mm 0 W/m2
20:36 2.7 °C -0.3 °C 1004.3 hPa Calm   3.2 km/h 81% 0 mm 0 W/m2
20:42 2.7 °C -0.3 °C 1004.3 hPa Calm   3.2 km/h 81% 0 mm 0 W/m2
20:48 2.7 °C -0.2 °C 1004.3 hPa Calm   3.2 km/h 81% 0 mm 0 W/m2
20:54 2.8 °C -0.3 °C 1004.3 hPa Calm     80% 0 mm 0 W/m2
21:00 2.8 °C -0.3 °C 1003.9 hPa Calm     80% 0 mm 0 W/m2
21:06 2.8 °C -0.1 °C 1003.6 hPa Calm   1.6 km/h 81% 0 mm 0 W/m2
21:12 2.9 °C -0.2 °C 1003.6 hPa NE 1.6 km/h 3.2 km/h 80% 0 mm 0 W/m2
21:18 2.9 °C -0.2 °C 1003.3 hPa NE 1.6 km/h 3.2 km/h 80% 0 mm 0 W/m2
21:24 2.9 °C -0.2 °C 1003.3 hPa NE 1.6 km/h 1.6 km/h 80% 0 mm 0 W/m2
21:30 3 °C -0.3 °C 1003.3 hPa NE 1.6 km/h 3.2 km/h 79% 0 mm 0 W/m2
21:36 3.1 °C -0.4 °C 1003.3 hPa NE 1.6 km/h 3.2 km/h 78% 0 mm 0 W/m2
21:42 3.2 °C -0.5 °C 1002.9 hPa NE 1.6 km/h 4.8 km/h 77% 0 mm 0 W/m2
21:48 3.2 °C -0.4 °C 1002.9 hPa NE 1.6 km/h 4.8 km/h 77% 0 mm 0 W/m2
21:54 3.2 °C -0.4 °C 1002.9 hPa NE 1.6 km/h 3.2 km/h 77% 0 mm 0 W/m2
22:00 3.3 °C -0.6 °C 1002.9 hPa NE 1.6 km/h 1.6 km/h 76% 0 mm 0 W/m2
22:06 3.3 °C -0.6 °C 1002.9 hPa NE 1.6 km/h 1.6 km/h 76% 0 mm 0 W/m2
22:12 3.3 °C -0.6 °C 1002.6 hPa Calm     76% 0 mm 0 W/m2
22:18 3.3 °C -0.6 °C 1002.6 hPa Calm     76% 0 mm 0 W/m2
22:24 3.3 °C -0.7 °C 1002.6 hPa Calm     75% 0 mm 0 W/m2
22:30 3.3 °C -0.5 °C 1002.6 hPa Calm   1.6 km/h 76% 0 mm 0 W/m2
22:36 3.3 °C -0.6 °C 1002.6 hPa Calm   3.2 km/h 76% 0 mm 0 W/m2
22:42 3.3 °C -0.6 °C 1002.6 hPa Calm     76% 0 mm 0 W/m2
22:48 3.3 °C -0.4 °C 1002.6 hPa Calm     77% 0 mm 0 W/m2
22:54 3.2 °C -0.2 °C 1002.6 hPa ENE 1.6 km/h 11.3 km/h 78% 0 mm 0 W/m2
23:00 3.4 °C -0.1 °C 1002.6 hPa NE 4.8 km/h 8 km/h 78% 0 mm 0 W/m2
23:06 3.6 °C 0.3 °C 1002.6 hPa NE 9.7 km/h 12.9 km/h 79% 0 mm 0 W/m2
23:12 3.4 °C 0.3 °C 1002.6 hPa East 8 km/h 8 km/h 80% 2.79 mm 0 W/m2
23:18 2.9 °C 0.1 °C 1002.6 hPa ENE 9.7 km/h 20.9 km/h 82% 4.32 mm 0 W/m2
23:24 2.7 °C 0.2 °C 1002.6 hPa NNE 11.3 km/h 22.5 km/h 84% 3.3 mm 0 W/m2
23:30 2.3 °C 0.1 °C 1002.6 hPa East 9.7 km/h 11.3 km/h 85% 2.79 mm 0 W/m2
23:36 2.1 °C 0 °C 1002.6 hPa NE 8 km/h 11.3 km/h 86% 3.3 mm 0 W/m2
23:42 2 °C 0.1 °C 1002.3 hPa ENE 6.4 km/h 8 km/h 87% 2.03 mm 0 W/m2
23:48 1.9 °C 0 °C 1002.6 hPa SE 4.8 km/h 8 km/h 87% 2.03 mm 0 W/m2
23:54 1.9 °C -0.1 °C 1002.6 hPa NNE 6.4 km/h 6.4 km/h 87% 2.29 mm 0 W/m2
Country Meadow, Clay, NY, USA
Compliments of Weather Underground - 2 mb